NCAR-RAP Real-Time Weather Data

Output produced by METARs form (08 May 2021  15:31 UTC)
found at http://weather.rap.ucar.edu/surface/
 
KSHV 081456Z 18010G18KT 10SM FEW280 24/16 A3002 RMK AO2 SLP161 T02390156 58002
KSHV 081356Z 17009KT 10SM FEW230 SCT280 21/15 A3003 RMK AO2 SLP167 T02110150
KSHV 081256Z 15007KT 10SM SCT190 BKN280 19/14 A3003 RMK AO2 SLP167 T01890144
KSHV 081156Z 16003KT 10SM SCT180 BKN280 16/12 A3002 RMK AO2 SLP164 T01560122 10200 20150 53005
KSHV 081056Z 13005KT 10SM SCT190 BKN280 16/12 A3001 RMK AO2 SLP161 T01610122
KSHV 080956Z 14004KT 10SM FEW270 16/12 A3001 RMK AO2 SLP160 T01610122
KSHV 080856Z 13004KT 10SM SCT260 17/12 A3001 RMK AO2 SLP159 T01720122 56015
KSHV 080756Z 15006KT 10SM SCT260 17/13 A3001 RMK AO2 SLP160 T01720128
KSHV 080656Z 15007KT 10SM SCT270 18/13 A3004 RMK AO2 SLP169 T01830128
KSHV 080556Z 14008KT 10SM BKN280 20/12 A3005 RMK AO2 SLP173 T02000122 10261 20194 402780144 53011
KSHV 080456Z 15007KT 10SM BKN280 20/12 A3005 RMK AO2 SLP171 T02000122
KSHV 080356Z 14007KT 10SM FEW280 21/12 A3002 RMK AO2 SLP164 T02110122
KSHV 080256Z 13005KT 10SM FEW280 20/11 A3002 RMK AO2 SLP163 T02000111 55006
KSHV 080156Z 15004KT 10SM FEW280 20/12 A3001 RMK AO2 SLP160 T02000117
KSHV 080056Z 13005KT 10SM FEW280 23/11 A3002 RMK AO2 SLP163 T02330106